Time;durP1;ratioP1;P1;durP2;ratioP2;P2;SDS_P1;SDS_P2;PMS_P1;PMS_P2;Temp;Humidity;BMP_temperature;BMP_pressure;BME280_temperature;BME280_humidity;BME280_pressure;Samples;Min_cycle;Max_cycle;Signal;HPM_P1;HPM_P2
2021/05/28 00:00:41;;;;;;;12.53;9.00;;;;;;;17.61;91.03;94683.59;5094988;28;20439;-84
2021/05/28 00:03:08;;;;;;;10.40;8.03;;;;;;;17.58;91.30;94681.28;5094933;28;20428;-84
2021/05/28 00:05:35;;;;;;;12.13;7.23;;;;;;;17.58;91.17;94681.28;5095261;28;20439;-84
2021/05/28 00:08:01;;;;;;;20.17;8.77;;;;;;;17.61;91.53;94666.84;5059807;28;20435;-84
2021/05/28 00:10:28;;;;;;;8.67;7.80;;;;;;;17.61;91.17;94661.53;5095003;28;20987;-84
2021/05/28 00:12:55;;;;;;;14.20;7.70;;;;;;;17.60;91.50;94666.00;5059868;28;20470;-84
2021/05/28 00:15:22;;;;;;;11.50;8.37;;;;;;;17.59;91.43;94666.19;5095013;28;20448;-85
2021/05/28 00:17:49;;;;;;;8.97;7.90;;;;;;;17.58;91.49;94656.59;5094715;28;20428;-84
2021/05/28 00:20:16;;;;;;;9.53;8.53;;;;;;;17.53;91.58;94654.47;5094952;28;20855;-84
2021/05/28 00:22:43;;;;;;;8.20;7.40;;;;;;;17.54;91.87;94660.59;5094578;28;20978;-84
2021/05/28 00:25:11;;;;;;;9.30;8.50;;;;;;;17.51;91.53;94651.16;5094870;28;20920;-84
2021/05/28 00:27:38;;;;;;;10.57;7.90;;;;;;;17.47;91.71;94659.66;5095053;28;20421;-84
2021/05/28 00:30:06;;;;;;;9.80;7.50;;;;;;;17.44;92.01;94647.59;5094411;28;20479;-85
2021/05/28 00:32:34;;;;;;;11.40;8.03;;;;;;;17.42;91.77;94648.78;5094889;28;20451;-84
2021/05/28 00:35:01;;;;;;;11.43;9.43;;;;;;;17.38;92.04;94636.88;5095154;28;20470;-84
2021/05/28 00:37:27;;;;;;;11.27;7.80;;;;;;;17.34;92.42;94639.03;5059174;28;20564;-85
2021/05/28 00:39:54;;;;;;;11.97;8.20;;;;;;;17.32;92.11;94631.25;5095067;28;20920;-84
2021/05/28 00:42:20;;;;;;;10.03;7.80;;;;;;;17.36;91.71;94623.78;5094701;28;20452;-84
2021/05/28 00:44:47;;;;;;;13.70;7.63;;;;;;;17.33;91.59;94616.97;5094385;28;20444;-85
2021/05/28 00:47:14;;;;;;;13.93;8.70;;;;;;;17.25;91.82;94619.72;5094291;28;20853;-84
2021/05/28 00:49:41;;;;;;;10.00;7.60;;;;;;;17.17;92.10;94611.81;5075775;28;21015;-84
2021/05/28 00:52:08;;;;;;;8.63;7.60;;;;;;;17.15;92.47;94608.53;5093879;28;20436;-84
2021/05/28 00:54:34;;;;;;;11.40;8.53;;;;;;;17.10;92.53;94604.75;5075633;28;20452;-85
2021/05/28 00:57:01;;;;;;;13.90;8.10;;;;;;;17.00;92.63;94595.19;5094383;28;20546;-84
2021/05/28 00:59:28;;;;;;;9.50;8.20;;;;;;;16.91;92.73;94587.47;5094265;28;20517;-84
2021/05/28 01:01:55;;;;;;;10.40;8.30;;;;;;;16.83;93.06;94588.38;5094189;28;21231;-84
2021/05/28 01:04:21;;;;;;;11.43;9.73;;;;;;;16.81;92.99;94585.06;5093962;28;21201;-84
2021/05/28 01:06:49;;;;;;;13.40;8.67;;;;;;;16.83;92.74;94584.91;5093997;28;20443;-85
2021/05/28 01:09:16;;;;;;;9.20;8.30;;;;;;;16.86;92.60;94587.19;5093976;28;20479;-83
2021/05/28 01:11:42;;;;;;;10.40;8.60;;;;;;;16.84;92.26;94583.91;5093952;28;20440;-84
2021/05/28 01:14:09;;;;;;;8.47;7.47;;;;;;;16.76;92.81;94584.75;5093823;28;20916;-83
2021/05/28 01:16:36;;;;;;;15.17;8.90;;;;;;;16.73;93.28;94575.31;5094185;28;20450;-84
2021/05/28 01:19:03;;;;;;;11.60;7.83;;;;;;;16.74;93.33;94578.81;5094285;28;20483;-84
2021/05/28 01:21:30;;;;;;;10.13;9.10;;;;;;;16.77;93.16;94582.91;5093752;28;20441;-84
2021/05/28 01:23:57;;;;;;;9.13;8.30;;;;;;;16.77;93.20;94585.56;5075058;28;20444;-84
2021/05/28 01:26:24;;;;;;;12.50;8.30;;;;;;;16.65;92.62;94591.25;5093653;28;20443;-84
2021/05/28 01:28:50;;;;;;;17.73;7.80;;;;;;;16.58;92.71;94592.13;5093991;28;20467;-84
2021/05/28 01:31:17;;;;;;;8.47;7.73;;;;;;;16.57;92.75;94593.13;5093336;28;20483;-84
2021/05/28 01:40:34;;;;;;;12.93;8.73;;;;;;;16.51;92.26;94599.94;5093839;28;20434;-84
2021/05/28 01:43:01;;;;;;;10.03;6.80;;;;;;;16.55;92.30;94606.56;5093733;28;20431;-84
2021/05/28 01:45:27;;;;;;;8.50;7.53;;;;;;;16.59;91.26;94605.19;5058398;28;20494;-84
2021/05/28 01:47:54;;;;;;;7.97;7.27;;;;;;;16.60;91.35;94600.72;5093718;28;20439;-84
2021/05/28 01:50:21;;;;;;;9.97;8.07;;;;;;;16.61;91.20;94605.03;5093270;28;21012;-84
2021/05/28 01:52:47;;;;;;;8.50;7.07;;;;;;;16.60;90.96;94598.91;5093524;28;20440;-84
2021/05/28 01:55:15;;;;;;;9.43;7.60;;;;;;;16.62;90.95;94602.19;5093265;28;20440;-84
2021/05/28 01:57:43;;;;;;;14.07;7.37;;;;;;;16.66;91.10;94598.22;5093262;28;20456;-84
2021/05/28 02:00:13;;;;;;;10.60;8.63;;;;;;;16.68;91.19;94598.88;5093487;28;20971;-84
2021/05/28 02:02:40;;;;;;;12.30;8.73;;;;;;;16.67;90.10;94593.75;5094160;28;20475;-84
2021/05/28 02:05:08;;;;;;;10.27;8.90;;;;;;;16.66;90.72;94589.44;5097130;28;20824;-85
2021/05/28 02:07:35;;;;;;;18.13;8.50;;;;;;;16.64;90.65;94589.59;5097409;28;20439;-85
2021/05/28 02:10:01;;;;;;;9.70;7.57;;;;;;;16.65;90.82;94580.66;5097072;28;20975;-84
2021/05/28 02:12:28;;;;;;;9.03;7.50;;;;;;;16.61;90.77;94589.94;5097389;28;20453;-84
2021/05/28 02:14:57;;;;;;;8.70;7.87;;;;;;;16.61;91.21;94592.59;5097452;28;20516;-84
2021/05/28 02:17:24;;;;;;;9.00;7.47;;;;;;;16.57;90.88;94591.31;5097487;28;20895;-84
2021/05/28 02:19:53;;;;;;;9.80;8.20;;;;;;;16.52;90.79;94585.72;5097292;28;20438;-84
2021/05/28 02:22:20;;;;;;;9.67;8.67;;;;;;;16.41;91.45;94591.38;5097085;28;20448;-85
2021/05/28 02:24:46;;;;;;;9.87;7.23;;;;;;;16.33;91.61;94594.88;5061666;28;20444;-84
2021/05/28 02:27:13;;;;;;;12.40;8.60;;;;;;;16.29;92.07;94587.47;5096807;28;20439;-85
2021/05/28 02:29:39;;;;;;;12.30;7.80;;;;;;;16.17;92.61;94583.53;5097189;28;20826;-84
2021/05/28 02:32:07;;;;;;;11.83;8.17;;;;;;;16.22;93.06;94583.88;5097075;28;20447;-84
2021/05/28 02:34:34;;;;;;;10.13;9.13;;;;;;;16.21;93.05;94579.56;5096759;28;20953;-84
2021/05/28 02:37:00;;;;;;;8.70;7.90;;;;;;;16.18;93.16;94574.59;5096685;28;20963;-85
2021/05/28 02:39:27;;;;;;;8.20;7.50;;;;;;;16.19;93.59;94573.59;5096872;28;20478;-85
2021/05/28 02:41:53;;;;;;;9.17;8.27;;;;;;;16.20;93.33;94562.03;5096859;28;20859;-84
2021/05/28 02:44:20;;;;;;;8.00;7.20;;;;;;;16.23;93.64;94565.16;5096733;28;20465;-84
2021/05/28 02:46:48;;;;;;;9.23;8.13;;;;;;;16.23;93.22;94559.03;5096667;28;20440;-84
2021/05/28 02:49:15;;;;;;;9.97;8.37;;;;;;;16.24;92.70;94560.69;5096722;28;20450;-84
2021/05/28 02:51:42;;;;;;;8.93;8.03;;;;;;;16.26;93.37;94564.81;5096632;28;20442;-84
2021/05/28 02:54:09;;;;;;;10.80;8.90;;;;;;;16.28;92.88;94572.56;5096409;28;20445;-84
2021/05/28 02:56:35;;;;;;;8.23;7.43;;;;;;;16.26;93.03;94574.56;5096786;28;20438;-85
2021/05/28 02:59:14;;;;;;;9.63;8.40;;;;;;;16.23;92.80;94580.22;5096373;28;20447;-84
2021/05/28 03:01:40;;;;;;;11.80;8.60;;;;;;;16.21;92.46;94587.50;5061476;28;20475;-84
2021/05/28 03:04:07;;;;;;;10.57;7.50;;;;;;;16.18;92.72;94583.34;5096128;28;20429;-85
2021/05/28 03:06:35;;;;;;;15.83;8.67;;;;;;;16.21;92.16;94583.03;5096308;28;20469;-84
2021/05/28 03:09:01;;;;;;;12.17;8.17;;;;;;;16.22;92.88;94578.56;5060898;28;20939;-84
2021/05/28 03:11:28;;;;;;;9.50;8.30;;;;;;;16.23;92.08;94581.03;5096565;28;20797;-85
2021/05/28 03:13:54;;;;;;;11.20;8.27;;;;;;;16.21;92.57;94587.50;5096082;28;20492;-84
2021/05/28 03:16:21;;;;;;;10.13;8.97;;;;;;;16.20;92.71;94585.88;5095825;28;20797;-84
2021/05/28 03:18:50;;;;;;;9.03;7.43;;;;;;;16.23;92.71;94601.41;5096409;28;20485;-85
2021/05/28 03:21:22;;;;;;;8.63;7.60;;;;;;;16.26;92.99;94601.88;5096095;28;20432;-85
2021/05/28 03:23:51;;;;;;;14.07;8.00;;;;;;;16.27;92.74;94614.13;5096153;28;20798;-85
2021/05/28 03:26:18;;;;;;;9.50;8.60;;;;;;;16.27;92.27;94614.13;5095692;28;20955;-84
2021/05/28 03:28:45;;;;;;;11.60;8.30;;;;;;;16.31;92.47;94614.59;5096161;28;20473;-84
2021/05/28 03:31:12;;;;;;;9.70;8.67;;;;;;;16.33;91.93;94612.59;5095493;28;20489;-85
2021/05/28 03:33:38;;;;;;;11.40;8.10;;;;;;;16.34;92.30;94619.53;5077460;28;21292;-84
2021/05/28 03:36:06;;;;;;;8.40;7.30;;;;;;;16.36;92.22;94613.09;5096192;28;20443;-84
2021/05/28 03:38:33;;;;;;;8.43;7.47;;;;;;;16.35;91.83;94605.31;5095833;28;20478;-84
2021/05/28 03:41:01;;;;;;;9.53;8.70;;;;;;;16.33;91.64;94599.34;5096035;28;20443;-84
2021/05/28 03:50:12;;;;;;;10.57;7.40;;;;;;;16.33;92.41;94612.59;5094490;28;20512;-85
2021/05/28 03:52:39;;;;;;;11.40;8.73;;;;;;;16.35;92.68;94623.84;5060381;28;20768;-85
2021/05/28 03:55:06;;;;;;;16.93;9.57;;;;;;;16.35;92.55;94629.97;5095475;28;20923;-85
2021/05/28 03:57:34;;;;;;;10.33;8.53;;;;;;;16.40;92.35;94640.03;5096119;28;20858;-84
2021/05/28 04:00:00;;;;;;;13.77;8.70;;;;;;;16.38;92.17;94640.22;5095439;28;20432;-87
2021/05/28 04:02:27;;;;;;;13.60;8.70;;;;;;;16.36;93.01;94649.31;5095687;28;20461;-84
2021/05/28 04:04:54;;;;;;;12.20;8.07;;;;;;;16.41;92.99;94652.28;5095479;28;20436;-84
2021/05/28 04:07:20;;;;;;;9.33;8.50;;;;;;;16.39;92.87;94651.63;5095338;28;20767;-84
2021/05/28 04:09:47;;;;;;;20.43;7.90;;;;;;;16.34;92.89;94654.78;5095205;28;20519;-89
2021/05/28 04:12:13;;;;;;;11.13;8.03;;;;;;;16.32;93.29;94654.16;5097578;28;20820;-85
2021/05/28 04:14:41;;;;;;;9.43;8.20;;;;;;;16.33;94.24;94639.91;5095238;28;20443;-85
2021/05/28 04:17:08;;;;;;;12.13;9.37;;;;;;;16.37;93.43;94640.38;5095071;28;20963;-87
2021/05/28 04:19:34;;;;;;;10.63;8.50;;;;;;;16.41;92.69;94629.28;5096911;28;20463;-86
2021/05/28 04:22:01;;;;;;;11.00;8.30;;;;;;;16.50;92.89;94632.72;5096490;28;20463;-85
2021/05/28 04:24:27;;;;;;;11.50;8.50;;;;;;;16.59;92.95;94626.38;5094835;28;20435;-85
2021/05/28 04:26:54;;;;;;;16.27;9.20;;;;;;;16.63;93.52;94627.69;5093722;28;20431;-85
2021/05/28 04:29:21;;;;;;;10.60;9.00;;;;;;;16.62;92.88;94623.41;5059564;28;20436;-85
2021/05/28 04:31:49;;;;;;;18.13;10.00;;;;;;;16.65;93.32;94611.63;5095228;28;20553;-85
2021/05/28 04:34:16;;;;;;;14.53;13.07;;;;;;;16.67;93.21;94610.47;5095592;28;20499;-87
2021/05/28 04:36:42;;;;;;;20.90;13.83;;;;;;;16.73;92.89;94616.91;5094949;28;20455;-82
2021/05/28 04:39:09;;;;;;;15.80;12.90;;;;;;;16.83;96.44;94616.69;5094819;28;20533;-83
2021/05/28 04:41:35;;;;;;;12.17;10.87;;;;;;;16.91;94.85;94621.94;5075539;28;20509;-83
2021/05/28 04:44:02;;;;;;;19.97;13.03;;;;;;;16.98;94.23;94629.00;5094165;28;20443;-86
2021/05/28 04:46:28;;;;;;;15.97;13.00;;;;;;;17.03;92.49;94631.13;5094828;28;20425;-86
2021/05/28 04:48:56;;;;;;;16.60;10.40;;;;;;;17.06;90.97;94632.59;5094143;28;20447;-84
2021/05/28 04:51:22;;;;;;;14.33;11.03;;;;;;;17.05;90.62;94629.13;5059122;28;20476;-84
2021/05/28 04:53:49;;;;;;;16.80;12.90;;;;;;;17.22;95.65;94619.25;5094369;28;20447;-84
2021/05/28 04:56:17;;;;;;;13.53;12.13;;;;;;;17.50;90.50;94627.47;5094296;28;20443;-83
2021/05/28 04:58:44;;;;;;;12.97;10.37;;;;;;;17.65;87.96;94621.22;5059398;28;20436;-84
2021/05/28 05:01:11;;;;;;;12.20;9.53;;;;;;;17.66;86.97;94630.00;5058907;28;20460;-83
2021/05/28 05:03:37;;;;;;;13.23;9.50;;;;;;;17.62;87.12;94632.16;5093802;28;20437;-83
2021/05/28 05:06:05;;;;;;;13.50;8.60;;;;;;;17.65;87.43;94625.69;5093739;28;20441;-83
2021/05/28 05:08:32;;;;;;;13.10;9.33;;;;;;;17.65;87.67;94628.34;5093782;28;20429;-83
2021/05/28 05:10:58;;;;;;;11.60;9.57;;;;;;;17.66;87.69;94627.34;5062678;28;20539;-82
2021/05/28 05:13:25;;;;;;;13.13;9.10;;;;;;;17.68;87.82;94629.84;5074218;28;20493;-83
2021/05/28 05:15:52;;;;;;;11.60;9.00;;;;;;;17.78;88.06;94639.19;5074028;28;20442;-83
2021/05/28 05:18:18;;;;;;;10.70;9.07;;;;;;;17.88;88.47;94636.28;5038815;28;20453;-82
2021/05/28 05:20:45;;;;;;;11.97;8.33;;;;;;;17.98;88.62;94641.34;5089698;28;20447;-82
2021/05/28 05:23:12;;;;;;;13.43;9.43;;;;;;;18.01;87.59;94646.28;5058969;28;20437;-82
2021/05/28 05:25:39;;;;;;;13.53;8.50;;;;;;;18.01;87.53;94646.28;5094187;28;20436;-83
2021/05/28 05:28:05;;;;;;;11.50;8.73;;;;;;;18.04;86.89;94659.19;5094477;28;20479;-83
2021/05/28 05:30:32;;;;;;;14.40;10.23;;;;;;;18.01;86.54;94652.44;5094519;28;20474;-83
2021/05/28 05:32:59;;;;;;;11.93;9.33;;;;;;;17.99;86.26;94653.63;5093816;28;20472;-83
2021/05/28 05:35:25;;;;;;;13.53;8.20;;;;;;;17.95;86.42;94659.28;5094351;28;20458;-84
2021/05/28 05:37:52;;;;;;;13.43;8.53;;;;;;;18.01;86.41;94667.53;5093774;28;20431;-83
2021/05/28 05:40:19;;;;;;;17.37;9.60;;;;;;;18.00;86.63;94666.72;5058438;28;20476;-83
2021/05/28 05:42:46;;;;;;;16.87;10.20;;;;;;;18.06;86.81;94665.97;5093863;28;20442;-84
2021/05/28 05:45:14;;;;;;;15.47;9.70;;;;;;;18.13;86.78;94661.59;5093673;28;20448;-83
2021/05/28 05:47:42;;;;;;;14.00;9.67;;;;;;;18.23;86.43;94664.81;5093776;28;20773;-83
2021/05/28 05:50:10;;;;;;;16.63;11.00;;;;;;;18.38;86.85;94663.97;5093742;28;20492;-84
2021/05/28 05:52:36;;;;;;;14.47;12.97;;;;;;;18.48;85.79;94673.31;5025746;28;20457;-82
2021/05/28 05:55:04;;;;;;;14.47;10.10;;;;;;;18.49;85.43;94668.81;5093922;28;20452;-81
2021/05/28 05:57:31;;;;;;;11.97;10.80;;;;;;;18.42;85.32;94671.41;5058288;28;20457;-82
2021/05/28 05:59:58;;;;;;;14.70;10.67;;;;;;;18.48;86.67;94662.69;5093308;28;20456;-82
2021/05/28 06:02:27;;;;;;;15.23;10.53;;;;;;;18.56;87.70;94672.41;5092910;28;20441;-82
2021/05/28 06:04:53;;;;;;;12.27;8.83;;;;;;;18.69;87.76;94677.94;5092837;28;20926;-82
2021/05/28 06:07:20;;;;;;;21.87;11.43;;;;;;;18.76;87.42;94668.19;5092989;28;20449;-83
2021/05/28 06:09:46;;;;;;;16.10;11.10;;;;;;;18.84;88.02;94667.28;5093265;28;20493;-81
2021/05/28 06:12:13;;;;;;;17.47;11.77;;;;;;;18.90;87.32;94677.19;5093191;28;20485;-83
2021/05/28 06:14:40;;;;;;;11.73;9.40;;;;;;;19.00;88.17;94659.06;5092957;28;20446;-81
2021/05/28 06:17:07;;;;;;;10.83;9.73;;;;;;;19.25;87.13;94669.38;5093157;28;20812;-81
2021/05/28 06:19:33;;;;;;;13.00;9.80;;;;;;;19.71;88.16;94662.72;5093074;28;20447;-84
2021/05/28 06:22:00;;;;;;;9.90;8.90;;;;;;;20.37;83.92;94667.72;5092960;28;20955;-81
2021/05/28 06:24:26;;;;;;;12.20;7.80;;;;;;;21.02;77.56;94674.44;5074186;28;20531;-79
2021/05/28 06:26:53;;;;;;;11.30;7.67;;;;;;;21.87;75.96;94668.50;5093120;28;20982;-83
2021/05/28 06:29:19;;;;;;;8.10;7.40;;;;;;;22.53;69.95;94670.31;5074104;28;20482;-81
2021/05/28 06:31:47;;;;;;;9.23;7.03;;;;;;;22.67;68.37;94673.78;5093116;28;20493;-84
2021/05/28 06:34:13;;;;;;;26.50;9.00;;;;;;;22.84;65.88;94678.53;5057817;28;20438;-82
2021/05/28 06:36:40;;;;;;;11.17;8.03;;;;;;;22.92;65.71;94679.31;5092955;28;20865;-80
2021/05/28 06:39:08;;;;;;;5.33;4.80;;;;;;;22.97;64.71;94671.47;5093114;28;20531;-82
2021/05/28 06:41:34;;;;;;;5.80;5.23;;;;;;;23.22;63.36;94669.72;5057776;28;20450;-82
2021/05/28 06:44:01;;;;;;;10.70;6.20;;;;;;;23.37;63.27;94672.94;5092558;28;20843;-83
2021/05/28 06:46:27;;;;;;;6.00;4.97;;;;;;;23.29;62.94;94667.81;5074282;28;20443;-81
2021/05/28 06:48:56;;;;;;;9.10;5.00;;;;;;;23.44;62.64;94673.75;5092601;28;20450;-83
2021/05/28 06:51:23;;;;;;;7.83;4.73;;;;;;;23.35;61.35;94666.97;5095947;28;21052;-81
2021/05/28 06:53:49;;;;;;;8.20;5.80;;;;;;;23.44;64.09;94652.31;5096806;28;20434;-83
2021/05/28 06:56:16;;;;;;;5.17;4.67;;;;;;;23.57;61.64;94659.47;5096328;28;20454;-81
2021/05/28 06:58:49;;;;;;;9.50;4.70;;;;;;;23.48;61.70;94661.56;5096214;28;20451;-83
2021/05/28 07:01:16;;;;;;;30.67;7.37;;;;;;;23.49;61.87;94651.66;5096601;28;20449;-82
2021/05/28 07:03:43;;;;;;;4.80;4.40;;;;;;;23.47;62.88;94657.22;5096118;28;20443;-82
2021/05/28 07:06:10;;;;;;;4.60;4.30;;;;;;;23.21;63.01;94652.03;5096497;28;20453;-82
2021/05/28 07:08:37;;;;;;;5.80;4.03;;;;;;;23.08;62.80;94646.72;5097031;28;20442;-83
2021/05/28 07:11:03;;;;;;;8.60;4.10;;;;;;;23.02;63.40;94653.75;5096923;28;20556;-84
2021/05/28 07:13:30;;;;;;;7.23;4.50;;;;;;;22.94;63.77;94650.50;5096423;28;20447;-83
2021/05/28 07:15:57;;;;;;;5.27;4.77;;;;;;;23.11;63.29;94647.09;5096032;28;20499;-83
2021/05/28 07:18:23;;;;;;;11.03;6.23;;;;;;;23.13;64.09;94644.22;5096426;28;20442;-82
2021/05/28 07:20:50;;;;;;;4.43;3.67;;;;;;;22.88;64.07;94637.97;5082302;28;20848;-83
2021/05/28 07:23:22;;;;;;;5.63;4.40;;;;;;;22.69;63.70;94644.97;5090532;28;20446;-83
2021/05/28 07:25:48;;;;;;;4.23;3.60;;;;;;;22.30;62.17;94637.88;5096484;28;20458;-84
2021/05/28 07:28:15;;;;;;;6.00;4.37;;;;;;;21.96;64.31;94637.03;5095803;28;20559;-83
2021/05/28 07:30:42;;;;;;;4.87;4.37;;;;;;;22.07;65.73;94639.13;5095595;28;20489;-83
2021/05/28 07:33:08;;;;;;;4.80;4.33;;;;;;;22.10;65.54;94638.72;5091451;28;20448;-82
2021/05/28 07:35:35;;;;;;;5.77;3.93;;;;;;;22.11;63.63;94632.34;5095996;28;20441;-83
2021/05/28 07:38:02;;;;;;;4.53;4.13;;;;;;;21.97;62.43;94633.34;5083054;28;20444;-83
2021/05/28 07:40:29;;;;;;;9.37;5.60;;;;;;;21.77;62.48;94644.03;5079823;28;20945;-83
2021/05/28 07:42:56;;;;;;;8.70;4.33;;;;;;;21.69;62.18;94638.09;5075477;28;20436;-83
2021/05/28 07:45:22;;;;;;;5.53;4.87;;;;;;;21.48;62.86;94655.91;5075902;28;20454;-83
2021/05/28 07:47:49;;;;;;;6.33;4.13;;;;;;;21.24;64.29;94646.63;5075995;28;20982;-82
2021/05/28 07:50:16;;;;;;;7.90;4.70;;;;;;;21.08;64.16;94652.28;5078306;28;20512;-81
2021/05/28 07:52:42;;;;;;;10.10;6.00;;;;;;;21.19;65.62;94650.91;5056755;28;20452;-82
2021/05/28 07:55:10;;;;;;;6.53;5.53;;;;;;;21.12;66.32;94650.06;5074926;28;20449;-82
2021/05/28 07:57:37;;;;;;;8.33;5.50;;;;;;;20.99;68.21;94650.81;5075231;28;20444;-81
2021/05/28 08:00:06;;;;;;;12.60;6.80;;;;;;;20.82;69.80;94655.69;5075249;28;20798;-82
2021/05/28 08:02:33;;;;;;;12.00;7.13;;;;;;;20.54;67.03;94655.75;5040382;28;20453;-83
2021/05/28 08:05:00;;;;;;;7.93;6.57;;;;;;;20.14;67.66;94648.50;5093683;28;20471;-83
2021/05/28 08:07:26;;;;;;;8.80;7.07;;;;;;;19.67;70.10;94656.13;5095019;28;20513;-81
2021/05/28 08:09:53;;;;;;;8.20;7.00;;;;;;;19.62;71.89;94663.84;5083574;28;20530;-82
2021/05/28 08:12:19;;;;;;;10.50;8.50;;;;;;;19.55;72.47;94667.47;5074969;28;20455;-81
2021/05/28 08:14:47;;;;;;;14.17;7.83;;;;;;;19.53;72.94;94670.31;5082595;28;20446;-82
2021/05/28 08:17:13;;;;;;;7.20;6.40;;;;;;;19.55;74.14;94667.47;5095095;28;20437;-82
2021/05/28 08:19:40;;;;;;;7.13;6.53;;;;;;;19.31;75.11;94677.44;5094963;28;20446;-81
2021/05/28 08:22:06;;;;;;;8.10;7.30;;;;;;;19.12;74.89;94680.72;5059598;28;20431;-82
2021/05/28 08:24:33;;;;;;;7.80;6.70;;;;;;;18.98;75.04;94674.41;5094837;28;20440;-82
2021/05/28 08:26:59;;;;;;;12.07;7.50;;;;;;;18.87;75.87;94690.84;5076025;28;20999;-83
2021/05/28 08:29:26;;;;;;;7.83;7.03;;;;;;;18.93;77.59;94699.91;5094386;28;20938;-82
2021/05/28 08:31:53;;;;;;;9.27;7.83;;;;;;;18.90;77.38;94689.66;5094003;28;20492;-81
2021/05/28 08:34:20;;;;;;;9.20;8.13;;;;;;;18.81;76.88;94700.38;5094600;28;20429;-82
2021/05/28 08:36:46;;;;;;;11.03;7.10;;;;;;;18.97;77.57;94702.00;5094023;28;20975;-82
2021/05/28 08:39:13;;;;;;;11.60;9.03;;;;;;;18.61;77.37;94701.91;5094215;28;20949;-82
2021/05/28 08:41:43;;;;;;;19.27;9.80;;;;;;;18.34;79.41;94729.13;5094106;28;20822;-81
2021/05/28 08:44:11;;;;;;;13.10;9.50;;;;;;;18.07;78.89;94744.63;5094289;28;20433;-81
2021/05/28 08:46:38;;;;;;;13.13;11.73;;;;;;;17.76;78.25;94750.03;5093825;28;20506;-81
2021/05/28 08:49:10;;;;;;;14.80;13.37;;;;;;;17.55;78.46;94761.25;5093962;28;20936;-80
2021/05/28 08:51:37;;;;;;;15.97;14.43;;;;;;;17.21;76.82;94769.56;5091137;28;20897;-82
2021/05/28 08:54:05;;;;;;;18.27;16.47;;;;;;;16.94;76.78;94765.53;5073683;28;20595;-81
2021/05/28 08:56:32;;;;;;;19.60;17.57;;;;;;;16.72;78.41;94777.72;5038819;28;20440;-81
2021/05/28 08:59:00;;;;;;;22.40;19.50;;;;;;;16.55;78.66;94773.44;5073593;28;20444;-82
2021/05/28 09:01:26;;;;;;;22.57;19.53;;;;;;;16.32;81.56;94789.19;5073961;28;20483;-82
2021/05/28 09:03:58;;;;;;;21.00;17.83;;;;;;;16.17;83.93;94811.19;5075563;28;20450;-83
2021/05/28 09:06:25;;;;;;;20.17;18.00;;;;;;;15.83;86.55;94808.72;5093935;28;20450;-82
2021/05/28 09:08:52;;;;;;;21.00;17.97;;;;;;;15.73;88.01;94819.47;5093763;28;20801;-81
2021/05/28 09:11:19;;;;;;;20.00;17.60;;;;;;;15.75;88.71;94820.13;5093711;28;20843;-82
2021/05/28 09:13:46;;;;;;;19.63;17.00;;;;;;;15.80;88.85;94818.63;5092974;28;20456;-82
2021/05/28 09:16:15;;;;;;;18.60;16.60;;;;;;;15.77;88.55;94824.25;5093711;28;20471;-81
2021/05/28 09:18:47;;;;;;;19.20;17.30;;;;;;;15.71;88.96;94818.81;5093997;28;20440;-82
2021/05/28 09:21:21;;;;;;;18.63;16.87;;;;;;;15.64;89.67;94828.38;5091189;28;20498;-82
2021/05/28 09:23:48;;;;;;;28.47;17.20;;;;;;;15.58;91.88;94840.41;5081735;28;20438;-82
2021/05/28 09:26:15;;;;;;;39.87;19.37;;;;;;;15.59;91.97;94834.13;5074155;28;20826;-82
2021/05/28 09:28:44;;;;;;;24.00;17.30;;;;;;;15.48;91.58;94834.41;5055930;28;20479;-82
2021/05/28 09:31:14;;;;;;;17.97;16.03;;;;;;;15.33;92.42;94838.69;5094181;28;20485;-82
2021/05/28 09:33:43;;;;;;;17.57;15.80;;;;;;;15.35;93.51;94842.81;5094768;28;20437;-82
2021/05/28 09:36:15;;;;;;;20.00;17.43;;;;;;;15.28;92.82;94839.13;5094186;28;20874;-83
2021/05/28 09:38:55;;;;;;;19.97;16.13;;;;;;;15.26;92.70;94843.75;5094491;28;20578;-81
2021/05/28 09:41:43;;;;;;;17.70;15.87;;;;;;;15.18;93.21;94844.56;5094241;28;20502;-82
2021/05/28 09:44:12;;;;;;;20.30;17.07;;;;;;;15.26;93.86;94842.94;5094007;28;20447;-81
2021/05/28 09:46:39;;;;;;;22.00;15.57;;;;;;;15.15;92.51;94828.19;5093539;28;20454;-82
2021/05/28 09:49:08;;;;;;;16.23;14.53;;;;;;;15.19;93.47;94833.00;5094226;28;20452;-84
2021/05/28 09:51:34;;;;;;;17.13;15.33;;;;;;;15.19;93.05;94840.94;5094102;28;20875;-82
2021/05/28 09:54:14;;;;;;;16.80;15.10;;;;;;;15.20;94.06;94836.47;5094039;28;20432;-82
2021/05/28 09:56:40;;;;;;;18.07;16.20;;;;;;;15.15;94.43;94844.06;5058297;28;20449;-83
2021/05/28 09:59:08;;;;;;;18.60;15.37;;;;;;;15.18;96.46;94834.00;5093706;28;20437;-82
2021/05/28 10:01:36;;;;;;;17.90;15.90;;;;;;;15.26;97.04;94838.47;5093714;28;20453;-82
2021/05/28 10:04:05;;;;;;;18.10;16.10;;;;;;;15.27;97.96;94840.13;5093853;28;20496;-82
2021/05/28 10:06:34;;;;;;;20.93;17.40;;;;;;;15.23;98.65;94840.59;5093947;28;20801;-83
2021/05/28 10:09:01;;;;;;;18.30;16.17;;;;;;;15.15;99.01;94836.13;5093890;28;20432;-83
2021/05/28 10:11:31;;;;;;;21.27;18.53;;;;;;;15.02;100.00;94836.56;5094025;28;20520;-83
2021/05/28 10:13:57;;;;;;;22.37;18.57;;;;;;;15.02;100.00;94831.25;5058600;28;20435;-83
2021/05/28 10:16:25;;;;;;;20.53;18.37;;;;;;;14.85;100.00;94826.91;5093882;28;20480;-83
2021/05/28 10:18:52;;;;;;;22.13;17.90;;;;;;;14.93;100.00;94831.41;5093767;28;20437;-84
2021/05/28 10:21:19;;;;;;;21.20;19.10;;;;;;;14.96;100.00;94833.72;5093650;28;20441;-83
2021/05/28 10:23:46;;;;;;;20.27;17.33;;;;;;;14.99;100.00;94830.75;5093721;28;20452;-83
2021/05/28 10:26:15;;;;;;;20.87;18.77;;;;;;;14.85;100.00;94825.09;5097481;28;20448;-86
2021/05/28 10:28:46;;;;;;;18.07;16.37;;;;;;;14.86;100.00;94828.56;5098606;28;20438;-87
2021/05/28 10:31:13;;;;;;;18.03;16.10;;;;;;;14.94;100.00;94835.69;5097919;28;20520;-86
2021/05/28 10:33:48;;;;;;;20.37;16.53;;;;;;;14.98;100.00;94831.75;5087575;28;20440;-87
2021/05/28 10:36:41;;;;;;;17.87;15.30;;;;;;;15.04;100.00;94831.13;5076717;28;20432;-83
2021/05/28 10:39:09;;;;;;;16.87;14.97;;;;;;;15.05;100.00;94828.34;5076946;28;20473;-81
2021/05/28 10:41:40;;;;;;;16.43;14.27;;;;;;;15.07;99.80;94830.81;5084974;28;20893;-88
2021/05/28 10:44:13;;;;;;;16.57;14.90;;;;;;;15.10;99.66;94836.59;5077915;28;20437;-82
2021/05/28 10:46:55;;;;;;;18.80;14.50;;;;;;;15.17;99.59;94832.34;5076387;28;20468;-82
2021/05/28 10:49:36;;;;;;;13.73;12.40;;;;;;;15.17;98.86;94836.78;5076477;28;20478;-83
2021/05/28 10:52:07;;;;;;;16.07;14.37;;;;;;;15.25;98.08;94833.34;5075319;28;20489;-83
2021/05/28 10:54:39;;;;;;;14.60;13.07;;;;;;;15.22;96.77;94836.31;5075939;28;20496;-82
2021/05/28 11:00:47;;;;;;;13.60;11.20;;;;;;;15.36;97.97;94830.44;5076091;28;20447;-82
2021/05/28 11:03:14;;;;;;;10.23;9.23;;;;;;;15.27;95.21;94829.56;5075880;28;20950;-82
2021/05/28 11:05:50;;;;;;;8.90;8.00;;;;;;;15.30;94.67;94828.41;5084283;28;20945;-83
2021/05/28 11:08:51;;;;;;;9.50;8.60;;;;;;;15.29;95.21;94838.16;5096159;28;20430;-80
2021/05/28 11:11:57;;;;;;;10.37;9.50;;;;;;;15.33;95.08;94833.41;5013940;28;21007;-82
2021/05/28 11:14:25;;;;;;;8.53;7.80;;;;;;;15.30;94.43;94831.88;5013717;28;20954;-82
2021/05/28 11:17:09;;;;;;;9.90;9.00;;;;;;;15.30;93.92;94842.44;5013858;28;20448;-83
2021/05/28 11:19:42;;;;;;;8.97;8.13;;;;;;;15.34;93.81;94833.22;5012673;28;20572;-81
2021/05/28 11:22:12;;;;;;;12.30;8.37;;;;;;;15.38;93.03;94847.78;4994076;28;20454;-83
2021/05/28 11:24:43;;;;;;;10.00;9.00;;;;;;;15.50;94.34;94843.84;4994429;28;20914;-82
2021/05/28 11:27:13;;;;;;;10.60;8.87;;;;;;;15.49;92.55;94844.84;4994201;28;20488;-84
2021/05/28 11:29:40;;;;;;;10.10;9.20;;;;;;;15.56;92.83;94847.66;4994675;28;20457;-84
2021/05/28 11:32:31;;;;;;;10.27;9.37;;;;;;;15.46;91.55;94844.34;5002291;28;21056;-84
2021/05/28 11:35:15;;;;;;;11.93;10.40;;;;;;;15.39;91.96;94854.72;4994502;28;20946;-82
2021/05/28 11:37:42;;;;;;;13.57;11.33;;;;;;;15.32;92.78;94848.41;4961925;28;20833;-83
2021/05/28 11:40:14;;;;;;;178.13;27.30;;;;;;;15.25;93.18;94844.75;5003469;28;20527;-83
2021/05/28 11:42:41;;;;;;;20.80;13.90;;;;;;;15.28;92.12;94849.72;5073638;28;20475;-80
2021/05/28 11:45:09;;;;;;;14.17;12.77;;;;;;;15.17;91.20;94852.66;5096079;28;20920;-80